Time;durP1;ratioP1;P1;durP2;ratioP2;P2;SDS_P1;SDS_P2;PMS_P1;PMS_P2;Temp;Humidity;BMP_temperature;BMP_pressure;BME280_temperature;BME280_humidity;BME280_pressure;Samples;Min_cycle;Max_cycle;Signal;HPM_P1;HPM_P2
2023/09/08 00:01:08;;;;;;;6.18;4.20;;;;;;;24.05;53.44;101615.09;5055847;27;20049;-64
2023/09/08 00:03:36;;;;;;;5.03;3.78;;;;;;;24.02;53.63;101610.19;5059281;27;20045;-64
2023/09/08 00:06:04;;;;;;;6.35;4.18;;;;;;;23.87;53.81;101583.75;5051533;27;20068;-64
2023/09/08 00:08:32;;;;;;;4.72;4.13;;;;;;;23.97;53.87;101600.09;5051675;28;20057;-64
2023/09/08 00:11:00;;;;;;;6.30;4.13;;;;;;;23.95;53.55;101607.81;5053992;28;20049;-64
2023/09/08 00:13:28;;;;;;;4.90;3.75;;;;;;;23.94;53.71;101605.34;5057498;28;20144;-64
2023/09/08 00:15:56;;;;;;;5.38;3.90;;;;;;;23.92;53.69;101607.56;5052872;28;20389;-64
2023/09/08 00:18:25;;;;;;;5.70;3.88;;;;;;;23.88;53.87;101606.53;5055651;27;20049;-64
2023/09/08 00:20:53;;;;;;;8.35;4.63;;;;;;;23.87;53.62;101607.63;5055866;28;20049;-64
2023/09/08 00:23:21;;;;;;;8.30;4.07;;;;;;;23.85;53.68;101609.84;5056070;28;20078;-64
2023/09/08 00:25:50;;;;;;;7.03;4.15;;;;;;;23.83;53.91;101603.84;5056113;28;20048;-64
2023/09/08 00:28:18;;;;;;;6.43;4.50;;;;;;;23.81;53.69;101606.88;5051759;27;20046;-64
2023/09/08 00:30:46;;;;;;;6.97;4.57;;;;;;;23.80;53.70;101612.66;5057068;28;20097;-64
2023/09/08 00:33:14;;;;;;;5.38;3.95;;;;;;;23.79;53.92;101613.75;5059098;28;20074;-64
2023/09/08 00:35:49;;;;;;;5.82;4.35;;;;;;;23.76;53.94;101608.84;5055480;28;20069;-64
2023/09/08 00:38:17;;;;;;;6.65;4.18;;;;;;;23.74;53.75;101609.16;5057430;27;20075;-64
2023/09/08 00:40:45;;;;;;;6.63;4.18;;;;;;;23.72;54.07;101621.53;5056543;27;20505;-64
2023/09/08 00:43:13;;;;;;;5.80;4.30;;;;;;;23.71;53.97;101608.91;5061610;27;20062;-64
2023/09/08 00:45:43;;;;;;;5.43;4.22;;;;;;;23.67;53.86;101612.25;5058255;27;20041;-64
2023/09/08 00:48:11;;;;;;;9.75;4.93;;;;;;;23.65;53.72;101611.72;5058803;27;20063;-64
2023/09/08 00:50:39;;;;;;;8.65;4.38;;;;;;;23.63;53.93;101605.69;5055060;28;20192;-64
2023/09/08 00:53:09;;;;;;;6.57;4.75;;;;;;;23.62;53.74;101606.81;5059012;28;20056;-64
2023/09/08 00:55:39;;;;;;;7.38;4.85;;;;;;;23.60;53.99;101602.72;5057751;27;20171;-64
2023/09/08 00:58:07;;;;;;;5.55;4.32;;;;;;;23.58;53.71;101605.75;5060368;27;20041;-64
2023/09/08 01:00:35;;;;;;;8.52;4.50;;;;;;;23.57;53.91;101608.78;5058765;28;20049;-64
2023/09/08 01:03:03;;;;;;;6.30;4.28;;;;;;;23.56;54.11;101601.66;5053784;27;20052;-64
2023/09/08 01:05:31;;;;;;;6.97;4.63;;;;;;;23.55;54.12;101605.50;5056706;28;20126;-64
2023/09/08 01:08:00;;;;;;;7.45;4.47;;;;;;;23.49;53.96;101592.94;5057903;28;20121;-64
2023/09/08 01:10:30;;;;;;;7.95;4.28;;;;;;;23.52;53.85;101601.41;5057735;27;20041;-64
2023/09/08 01:12:58;;;;;;;7.82;4.32;;;;;;;23.51;53.59;101596.19;5061747;27;20045;-64
2023/09/08 01:15:26;;;;;;;6.97;4.65;;;;;;;23.49;53.76;101601.97;5051392;27;20114;-64
2023/09/08 01:17:54;;;;;;;6.38;3.95;;;;;;;23.45;53.61;101598.19;5057434;27;20060;-64
2023/09/08 01:20:25;;;;;;;6.47;4.30;;;;;;;23.48;54.13;101599.53;5058067;28;20056;-64
2023/09/08 01:23:04;;;;;;;8.48;4.88;;;;;;;23.46;54.20;101601.75;5057388;28;20045;-64
2023/09/08 01:25:41;;;;;;;6.82;4.47;;;;;;;23.44;54.19;101595.72;5059716;27;20067;-64
2023/09/08 01:28:10;;;;;;;6.47;4.60;;;;;;;23.27;54.06;101576.97;5058756;28;20041;-64
2023/09/08 01:30:39;;;;;;;6.85;4.47;;;;;;;23.41;53.86;101602.59;5058410;28;20053;-64
2023/09/08 01:33:08;;;;;;;7.28;4.43;;;;;;;23.40;53.69;101600.97;5059180;27;20074;-64
2023/09/08 01:35:37;;;;;;;7.50;4.60;;;;;;;23.38;54.20;101606.75;5056057;28;20045;-64
2023/09/08 01:38:04;;;;;;;6.90;4.15;;;;;;;23.36;54.24;101600.72;5057342;27;20073;-64
2023/09/08 01:40:34;;;;;;;6.10;4.60;;;;;;;23.35;53.78;101601.03;5056371;27;20056;-63
2023/09/08 01:43:02;;;;;;;6.28;4.70;;;;;;;23.33;54.24;101598.56;5055409;28;20045;-64
2023/09/08 01:45:29;;;;;;;7.63;4.55;;;;;;;23.32;54.16;101610.66;5055212;27;20041;-64
2023/09/08 01:47:57;;;;;;;5.97;4.15;;;;;;;23.31;53.84;101606.25;5055630;28;20259;-63
2023/09/08 01:50:25;;;;;;;7.47;4.55;;;;;;;23.30;54.28;101601.88;5057745;27;20064;-64
2023/09/08 01:52:53;;;;;;;6.10;4.10;;;;;;;23.28;54.17;101598.63;5054581;27;20045;-63
2023/09/08 01:55:21;;;;;;;7.60;4.55;;;;;;;23.20;54.20;101584.69;5055910;27;20044;-66
2023/09/08 01:57:50;;;;;;;5.18;4.25;;;;;;;23.23;53.90;101598.66;5055902;28;20048;-64
2023/09/08 02:00:18;;;;;;;9.93;5.70;;;;;;;23.22;54.00;101598.94;5057566;27;20052;-64
2023/09/08 02:02:46;;;;;;;7.95;4.60;;;;;;;23.19;54.10;101592.13;5058534;27;20049;-63
2023/09/08 02:05:15;;;;;;;5.63;4.20;;;;;;;23.16;54.35;101600.91;5055007;28;20118;-64
2023/09/08 02:07:43;;;;;;;8.27;4.22;;;;;;;23.16;53.89;101591.88;5057059;28;20070;-64
2023/09/08 02:10:11;;;;;;;5.75;4.38;;;;;;;23.15;54.30;101598.47;5058569;27;20045;-64
2023/09/08 02:12:39;;;;;;;7.35;4.63;;;;;;;23.11;54.33;101594.66;5055720;27;20121;-64
2023/09/08 02:15:11;;;;;;;5.80;4.35;;;;;;;23.08;54.02;101595.22;5054993;28;20037;-64
2023/09/08 02:17:39;;;;;;;8.80;4.35;;;;;;;23.06;54.37;101592.78;5055342;27;20081;-64
2023/09/08 02:20:07;;;;;;;6.47;4.20;;;;;;;23.03;54.29;101604.31;5051745;27;20049;-63
2023/09/08 02:22:35;;;;;;;6.10;3.90;;;;;;;23.02;54.19;101598.03;5059026;28;20064;-64
2023/09/08 02:25:03;;;;;;;6.65;4.55;;;;;;;23.00;54.44;101594.75;5056353;27;20045;-64
2023/09/08 02:27:31;;;;;;;8.18;4.70;;;;;;;22.97;54.21;101598.06;5055419;28;20053;-64
2023/09/08 02:29:59;;;;;;;7.72;4.38;;;;;;;22.95;54.25;101591.22;5055684;27;20044;-64
2023/09/08 02:32:28;;;;;;;6.57;4.10;;;;;;;22.93;54.55;101585.22;5067240;27;20240;-64
2023/09/08 02:34:56;;;;;;;7.78;4.70;;;;;;;22.91;54.42;101587.41;5062076;27;20037;-64
2023/09/08 02:37:24;;;;;;;5.13;4.18;;;;;;;22.89;54.32;101584.97;5058225;27;20499;-64
2023/09/08 02:39:51;;;;;;;5.45;4.20;;;;;;;22.88;54.40;101585.25;5056972;28;20048;-63
2023/09/08 02:42:19;;;;;;;6.57;4.80;;;;;;;22.87;54.66;101587.19;5054137;27;20154;-64
2023/09/08 02:44:47;;;;;;;7.13;4.32;;;;;;;22.84;54.31;101582.25;5054002;28;20045;-64
2023/09/08 02:47:15;;;;;;;6.53;4.47;;;;;;;22.82;54.77;101587.22;5053367;27;20065;-63
2023/09/08 02:49:44;;;;;;;7.43;4.38;;;;;;;22.81;54.56;101588.31;5057495;28;20049;-64
2023/09/08 02:52:12;;;;;;;7.22;4.70;;;;;;;22.79;54.75;101584.19;5054312;28;20049;-64
2023/09/08 02:54:40;;;;;;;7.53;4.25;;;;;;;22.78;54.65;101588.03;5051770;27;20053;-64
2023/09/08 02:57:08;;;;;;;8.45;4.50;;;;;;;22.76;54.78;101587.50;5063532;27;20117;-64
2023/09/08 02:59:36;;;;;;;4.93;3.92;;;;;;;22.73;54.48;101586.97;5053993;27;20167;-64
2023/09/08 03:02:04;;;;;;;5.60;3.88;;;;;;;22.69;54.58;101587.81;5057925;28;20045;-64
2023/09/08 03:04:32;;;;;;;6.07;4.15;;;;;;;22.71;54.42;101589.19;5054953;28;20152;-64
2023/09/08 03:07:01;;;;;;;8.75;4.20;;;;;;;22.70;54.85;101590.28;5057636;27;20041;-64
2023/09/08 03:09:29;;;;;;;5.97;4.22;;;;;;;22.69;54.78;101585.91;5053052;28;20072;-64
2023/09/08 03:11:57;;;;;;;7.53;4.93;;;;;;;22.68;54.70;101589.75;5053520;28;20049;-64
2023/09/08 03:14:25;;;;;;;7.18;4.63;;;;;;;22.67;54.55;101590.03;5050707;27;20045;-64
2023/09/08 03:16:52;;;;;;;6.55;5.03;;;;;;;22.67;54.81;101587.28;5072761;27;20037;-64
2023/09/08 03:19:21;;;;;;;5.80;4.05;;;;;;;22.62;54.54;101579.13;5054469;27;20052;-64
2023/09/08 03:21:49;;;;;;;5.63;4.32;;;;;;;22.62;54.57;101577.19;5059304;28;20060;-64
2023/09/08 03:24:18;;;;;;;6.93;4.28;;;;;;;22.62;54.88;101585.41;5054442;27;20101;-64
2023/09/08 03:26:46;;;;;;;5.95;4.55;;;;;;;22.60;54.56;101587.63;5055860;27;20048;-64
2023/09/08 03:29:13;;;;;;;5.65;4.22;;;;;;;22.59;54.73;101582.41;5055559;28;20052;-63
2023/09/08 03:31:41;;;;;;;6.47;4.47;;;;;;;22.57;54.79;101585.44;5053680;27;20049;-63
2023/09/08 03:34:09;;;;;;;9.15;5.10;;;;;;;22.56;54.64;101583.00;5057544;27;20073;-63
2023/09/08 03:36:37;;;;;;;5.90;4.38;;;;;;;22.55;54.96;101578.63;5060290;28;20108;-64
2023/09/08 03:39:05;;;;;;;5.95;4.35;;;;;;;22.54;54.85;101583.28;5055646;27;20077;-64
2023/09/08 03:41:34;;;;;;;6.45;4.32;;;;;;;22.49;54.79;101577.03;5054977;27;20057;-64
2023/09/08 03:44:02;;;;;;;7.13;4.70;;;;;;;22.49;54.77;101575.13;5053865;27;20142;-63
2023/09/08 03:46:30;;;;;;;5.90;4.25;;;;;;;22.49;55.08;101568.81;5055429;28;20045;-64
2023/09/08 03:49:00;;;;;;;7.80;5.13;;;;;;;22.48;54.99;101572.66;5054223;27;20080;-64
2023/09/08 03:51:29;;;;;;;5.78;4.35;;;;;;;22.46;55.07;101569.38;5053311;28;20053;-64
2023/09/08 03:53:56;;;;;;;5.63;4.60;;;;;;;22.45;54.87;101579.53;5059058;27;20045;-64
2023/09/08 03:56:24;;;;;;;6.05;4.45;;;;;;;22.29;55.11;101556.88;5050017;27;20132;-64
2023/09/08 03:58:54;;;;;;;6.95;4.80;;;;;;;22.42;55.18;101573.78;5055724;27;20185;-64
2023/09/08 04:01:22;;;;;;;6.85;4.38;;;;;;;22.39;54.75;101575.19;5054498;27;20116;-64
2023/09/08 04:03:49;;;;;;;7.78;4.60;;;;;;;22.37;55.22;101569.97;5058471;27;20049;-64
2023/09/08 04:06:17;;;;;;;7.55;4.53;;;;;;;22.21;55.28;101557.47;5055761;28;20048;-64
2023/09/08 04:08:45;;;;;;;9.48;4.70;;;;;;;22.33;55.20;101582.59;5051505;28;20056;-64
2023/09/08 04:11:13;;;;;;;6.10;4.32;;;;;;;22.32;54.90;101571.94;5056434;28;20061;-64
2023/09/08 04:13:41;;;;;;;5.55;4.53;;;;;;;22.27;54.88;101567.31;5057871;27;20045;-64
2023/09/08 04:16:10;;;;;;;7.38;4.10;;;;;;;22.27;55.29;101563.75;5058424;27;20046;-64
2023/09/08 04:18:38;;;;;;;7.53;5.38;;;;;;;22.22;55.16;101563.78;5058668;27;20063;-64
2023/09/08 04:21:07;;;;;;;8.13;4.80;;;;;;;22.24;54.89;101569.78;5057585;28;20053;-64
2023/09/08 04:23:35;;;;;;;7.05;4.65;;;;;;;22.23;55.37;101570.88;5058403;28;20060;-64
2023/09/08 04:26:03;;;;;;;8.55;5.13;;;;;;;22.21;55.09;101567.63;5067801;27;20070;-64
2023/09/08 04:28:31;;;;;;;7.05;4.78;;;;;;;22.12;55.15;101558.34;5064394;27;20344;-64
2023/09/08 04:30:59;;;;;;;8.40;4.95;;;;;;;22.16;55.25;101562.16;5059273;28;20074;-64
2023/09/08 04:33:29;;;;;;;5.65;4.40;;;;;;;22.17;55.13;101561.88;5062255;27;20049;-64
2023/09/08 04:35:57;;;;;;;8.85;5.00;;;;;;;22.16;55.49;101562.16;5061849;27;20033;-64
2023/09/08 04:38:25;;;;;;;6.18;4.45;;;;;;;22.14;55.42;101564.38;5057958;27;20101;-63
2023/09/08 04:40:52;;;;;;;8.13;5.28;;;;;;;22.13;55.59;101562.72;5057278;28;20041;-64
2023/09/08 04:43:20;;;;;;;7.88;5.32;;;;;;;22.11;55.66;101567.66;5054175;27;20513;-64
2023/09/08 04:45:48;;;;;;;7.97;5.07;;;;;;;22.11;55.39;101559.44;5065779;27;20045;-63
2023/09/08 04:48:16;;;;;;;5.75;4.55;;;;;;;22.08;55.62;101558.09;5059510;27;20177;-63
2023/09/08 04:50:45;;;;;;;10.23;5.00;;;;;;;22.07;55.65;101561.94;5059784;28;20055;-63
2023/09/08 04:53:13;;;;;;;5.95;4.65;;;;;;;22.06;55.28;101568.50;5057533;28;20074;-63
2023/09/08 04:55:41;;;;;;;7.57;5.30;;;;;;;22.02;55.51;101571.00;5078793;27;20050;-63
2023/09/08 04:58:08;;;;;;;5.75;4.63;;;;;;;22.02;55.71;101581.94;5059374;27;20419;-63
2023/09/08 05:00:39;;;;;;;7.28;4.75;;;;;;;22.00;55.44;101575.91;5055064;27;20056;-63
2023/09/08 05:03:07;;;;;;;6.30;4.40;;;;;;;22.00;55.69;101577.81;5057583;27;20068;-65
2023/09/08 05:05:35;;;;;;;6.97;4.55;;;;;;;21.98;55.53;101575.34;5057279;28;20060;-65
2023/09/08 05:08:05;;;;;;;8.15;5.15;;;;;;;21.95;55.72;101575.91;5053909;28;20053;-65
2023/09/08 05:10:33;;;;;;;7.32;4.90;;;;;;;21.93;55.67;101578.13;5055844;27;20053;-63
2023/09/08 05:13:01;;;;;;;6.93;4.53;;;;;;;21.92;55.53;101573.75;5061414;27;20098;-63
2023/09/08 05:15:30;;;;;;;8.73;4.90;;;;;;;21.92;55.43;101573.75;5053128;28;20430;-63
2023/09/08 05:18:01;;;;;;;10.23;4.20;;;;;;;21.91;55.62;101569.38;5071447;27;20053;-65
2023/09/08 05:20:29;;;;;;;8.45;4.85;;;;;;;21.91;55.60;101576.75;5062525;27;20052;-62
2023/09/08 05:22:56;;;;;;;11.98;5.32;;;;;;;21.88;55.69;101586.34;5059106;28;20045;-62
2023/09/08 05:25:26;;;;;;;7.32;4.93;;;;;;;21.88;55.64;101593.75;5062953;27;20093;-62
2023/09/08 05:27:53;;;;;;;7.47;5.60;;;;;;;21.86;55.93;101588.53;5058861;27;20081;-62
2023/09/08 05:30:21;;;;;;;8.98;4.88;;;;;;;21.86;55.94;101587.72;5076169;27;20132;-63
2023/09/08 05:32:49;;;;;;;8.52;4.97;;;;;;;21.86;55.93;101598.66;4702546;28;10000569;-62
2023/09/08 05:35:17;;;;;;;8.82;4.47;;;;;;;21.85;55.88;101592.38;5053454;27;20136;-63
2023/09/08 05:37:45;;;;;;;8.07;4.70;;;;;;;21.84;55.97;101596.22;5053285;27;20337;-64
2023/09/08 05:40:12;;;;;;;6.53;4.72;;;;;;;21.83;55.83;101597.31;5054199;27;20044;-64
2023/09/08 05:42:42;;;;;;;5.78;4.70;;;;;;;21.84;55.82;101595.41;5052841;28;20163;-64
2023/09/08 05:45:12;;;;;;;7.03;4.57;;;;;;;21.83;55.97;101597.31;5055662;28;20041;-64
2023/09/08 05:47:40;;;;;;;7.70;4.32;;;;;;;21.82;56.13;101598.41;5057728;27;20049;-64
2023/09/08 05:50:08;;;;;;;7.25;4.38;;;;;;;21.82;56.09;101603.88;5067102;27;20075;-63
2023/09/08 05:52:36;;;;;;;6.60;4.53;;;;;;;21.79;56.07;101598.16;5061481;27;20045;-63
2023/09/08 05:55:04;;;;;;;8.60;5.05;;;;;;;21.80;56.15;101594.31;5055849;27;20093;-63
2023/09/08 05:57:34;;;;;;;8.20;4.72;;;;;;;21.79;55.99;101595.41;5057427;28;20549;-64
2023/09/08 06:00:04;;;;;;;5.90;4.53;;;;;;;21.77;56.13;101595.69;5056666;27;20562;-64
2023/09/08 06:02:33;;;;;;;6.88;4.72;;;;;;;21.76;56.12;101599.53;5061250;28;20052;-64
2023/09/08 06:05:01;;;;;;;7.82;4.75;;;;;;;21.75;56.18;101600.63;5054333;27;20048;-63
2023/09/08 06:07:28;;;;;;;11.02;5.40;;;;;;;21.75;56.17;101600.63;5063303;27;20041;-62
2023/09/08 06:09:56;;;;;;;7.07;4.28;;;;;;;21.74;56.14;101602.53;5064811;27;20052;-68
2023/09/08 06:12:24;;;;;;;13.63;7.00;;;;;;;21.65;56.67;101601.47;5054763;27;20057;-64
2023/09/08 06:14:52;;;;;;;16.30;6.32;;;;;;;21.65;57.00;101601.47;5055376;28;20154;-64
2023/09/08 06:17:21;;;;;;;14.18;5.57;;;;;;;21.68;56.71;101605.56;5061201;27;20074;-64
2023/09/08 06:19:49;;;;;;;15.30;6.13;;;;;;;21.70;56.65;101606.94;5059703;28;20052;-64
2023/09/08 06:22:17;;;;;;;12.65;5.85;;;;;;;21.73;56.31;101614.56;5063100;27;21269;-64
2023/09/08 06:24:44;;;;;;;10.90;5.53;;;;;;;21.76;56.48;101610.47;5059694;28;20045;-64
2023/09/08 06:27:13;;;;;;;10.25;5.50;;;;;;;21.80;56.16;101614.28;5059621;28;20093;-64
2023/09/08 06:29:43;;;;;;;7.15;4.88;;;;;;;21.75;56.26;101593.22;5055677;27;20053;-64
2023/09/08 06:32:11;;;;;;;7.30;5.25;;;;;;;21.86;56.11;101613.19;5059784;28;20105;-64
2023/09/08 06:34:40;;;;;;;9.23;4.88;;;;;;;21.89;55.85;101614.53;5057455;27;20073;-63
2023/09/08 06:37:08;;;;;;;6.85;4.93;;;;;;;21.90;56.18;101608.78;5056058;27;20063;-63
2023/09/08 06:39:36;;;;;;;6.93;4.63;;;;;;;21.92;56.25;101608.50;5053052;27;20053;-61
2023/09/08 06:42:05;;;;;;;8.70;4.95;;;;;;;21.93;55.97;101610.97;5055810;27;20083;-63
2023/09/08 06:44:32;;;;;;;8.65;4.65;;;;;;;21.93;56.20;101610.16;5053660;27;20061;-63
2023/09/08 06:47:00;;;;;;;10.02;4.57;;;;;;;21.91;56.19;101613.16;5060323;27;20108;-63
2023/09/08 06:49:28;;;;;;;7.93;4.55;;;;;;;21.92;56.38;101623.00;5056918;27;20503;-63
2023/09/08 06:51:57;;;;;;;6.93;5.13;;;;;;;21.91;56.47;101615.06;5057190;28;20053;-63
2023/09/08 06:54:25;;;;;;;8.05;4.47;;;;;;;21.80;56.55;101606.06;5058412;27;20052;-63
2023/09/08 06:56:53;;;;;;;8.52;4.78;;;;;;;21.90;56.58;101616.19;5053937;27;20049;-63
2023/09/08 06:59:21;;;;;;;8.00;5.07;;;;;;;21.89;56.33;101611.78;5053493;27;20105;-63
2023/09/08 07:01:48;;;;;;;8.88;5.60;;;;;;;21.90;56.57;101622.47;5051348;27;20116;-63
2023/09/08 07:04:16;;;;;;;6.55;4.53;;;;;;;21.91;56.75;101620.53;5058638;27;20085;-64
2023/09/08 07:06:46;;;;;;;8.45;5.10;;;;;;;21.91;56.43;101617.81;5055201;27;20177;-62
2023/09/08 07:09:15;;;;;;;7.03;4.00;;;;;;;21.91;56.78;101621.38;5056884;27;20052;-62
2023/09/08 07:11:43;;;;;;;8.82;4.75;;;;;;;21.91;56.75;101615.91;5070837;27;20118;-63
2023/09/08 07:14:11;;;;;;;7.70;4.72;;;;;;;21.92;56.50;101622.19;5052926;27;20051;-63
2023/09/08 07:16:38;;;;;;;6.40;4.53;;;;;;;21.92;56.56;101624.94;5056575;27;20041;-63
2023/09/08 07:19:06;;;;;;;6.28;4.68;;;;;;;21.93;56.78;101629.31;5054765;27;20056;-63
2023/09/08 07:21:34;;;;;;;6.55;4.60;;;;;;;21.93;56.96;101624.66;5055187;28;20049;-63
2023/09/08 07:24:02;;;;;;;5.13;3.97;;;;;;;21.93;57.14;101619.16;5057286;27;20049;-65
2023/09/08 07:26:31;;;;;;;6.90;4.85;;;;;;;21.92;57.08;101624.94;5055323;27;20837;-62
2023/09/08 07:28:59;;;;;;;5.95;4.53;;;;;;;21.95;56.71;101627.09;5047456;27;20121;-62
2023/09/08 07:31:27;;;;;;;8.55;4.70;;;;;;;21.94;57.01;101623.53;5054212;27;20049;-62
2023/09/08 07:33:55;;;;;;;8.73;4.32;;;;;;;21.94;57.02;101631.75;5053958;27;20063;-62
2023/09/08 07:36:23;;;;;;;9.23;5.13;;;;;;;21.95;57.07;101624.38;5054509;27;20064;-62
2023/09/08 07:38:50;;;;;;;6.32;5.07;;;;;;;21.95;57.05;101624.38;5053023;27;20104;-62
2023/09/08 07:41:18;;;;;;;8.40;4.97;;;;;;;21.95;57.28;101627.09;5057735;27;20053;-62
2023/09/08 07:43:47;;;;;;;6.13;4.30;;;;;;;21.96;57.16;101628.75;5052229;27;20045;-62
2023/09/08 07:46:15;;;;;;;9.00;4.43;;;;;;;21.94;57.03;101620.81;5054567;27;20525;-62
2023/09/08 07:48:43;;;;;;;7.43;4.88;;;;;;;21.97;57.33;101627.66;5057685;27;20117;-62
2023/09/08 07:51:11;;;;;;;5.97;4.13;;;;;;;21.97;57.04;101624.91;5055097;27;20044;-62
2023/09/08 07:53:39;;;;;;;6.57;4.78;;;;;;;21.97;57.19;101623.00;5056228;27;20431;-62
2023/09/08 07:56:07;;;;;;;7.05;4.93;;;;;;;21.97;57.39;101620.25;5052185;27;20155;-62
2023/09/08 07:58:35;;;;;;;6.38;4.57;;;;;;;21.99;57.20;101619.97;5052697;27;20049;-62
2023/09/08 08:01:05;;;;;;;10.23;4.60;;;;;;;22.00;57.53;101616.13;5055161;27;20045;-62
2023/09/08 08:03:34;;;;;;;8.60;4.85;;;;;;;22.00;57.47;101607.94;5053596;28;20068;-62
2023/09/08 08:06:03;;;;;;;6.90;4.65;;;;;;;22.01;57.42;101606.81;5054449;27;20059;-62
2023/09/08 08:08:31;;;;;;;5.97;4.63;;;;;;;22.01;57.22;101613.13;5054171;27;20083;-62
2023/09/08 08:10:59;;;;;;;6.35;4.22;;;;;;;22.00;57.20;101608.75;5053887;27;20136;-62
2023/09/08 08:13:27;;;;;;;5.32;3.92;;;;;;;22.03;57.55;101616.44;5055799;27;20053;-62
2023/09/08 08:15:55;;;;;;;6.57;4.22;;;;;;;22.04;57.42;101611.78;5054908;27;20450;-62
2023/09/08 08:18:24;;;;;;;5.57;4.03;;;;;;;22.03;57.54;101610.13;5055285;27;20045;-62
2023/09/08 08:20:53;;;;;;;7.13;4.47;;;;;;;21.94;57.59;101598.91;5054700;28;20069;-62
2023/09/08 08:23:20;;;;;;;5.32;4.05;;;;;;;22.06;57.40;101624.09;5055672;27;20458;-62
2023/09/08 08:25:50;;;;;;;9.48;4.55;;;;;;;22.07;57.74;101616.69;5058753;27;20053;-62
2023/09/08 08:28:17;;;;;;;5.68;4.47;;;;;;;22.08;57.52;101623.81;5049659;27;20044;-62
2023/09/08 08:30:47;;;;;;;7.00;4.63;;;;;;;22.10;57.73;101623.53;5061130;27;20044;-62
2023/09/08 08:33:16;;;;;;;7.68;4.22;;;;;;;22.10;57.74;101623.53;5053831;28;20056;-63
2023/09/08 08:35:50;;;;;;;8.55;4.35;;;;;;;22.12;57.71;101618.59;5066203;27;20061;-62
2023/09/08 08:38:18;;;;;;;6.70;4.30;;;;;;;22.13;58.13;101622.97;5064819;27;20038;-62
2023/09/08 08:40:46;;;;;;;6.65;4.50;;;;;;;22.14;58.12;101625.41;5049495;28;20067;-63
2023/09/08 08:43:14;;;;;;;5.00;4.13;;;;;;;22.15;58.18;101631.72;5055869;27;20102;-61
2023/09/08 08:45:43;;;;;;;6.07;3.83;;;;;;;22.17;57.86;101624.88;5053719;28;20064;-61
2023/09/08 08:48:12;;;;;;;6.20;4.20;;;;;;;22.18;58.26;101628.41;5059304;27;20045;-61
2023/09/08 08:50:44;;;;;;;5.82;4.18;;;;;;;22.20;58.69;101620.75;5062325;27;20052;-61
2023/09/08 08:53:13;;;;;;;6.88;4.68;;;;;;;22.21;58.60;101616.91;5058695;27;20056;-61
2023/09/08 08:55:42;;;;;;;5.65;3.80;;;;;;;22.21;58.66;101617.72;5069671;27;20105;-61
2023/09/08 08:58:10;;;;;;;8.55;4.78;;;;;;;22.25;58.88;101616.06;5057773;27;20113;-62
2023/09/08 09:00:39;;;;;;;6.35;4.22;;;;;;;22.27;59.12;101616.59;5059112;27;20118;-61
2023/09/08 09:03:08;;;;;;;9.93;4.13;;;;;;;22.30;59.26;101609.75;5058935;28;20053;-61
2023/09/08 09:05:43;;;;;;;5.25;4.15;;;;;;;22.32;59.62;101610.28;5060738;27;20063;-61
2023/09/08 09:08:18;;;;;;;6.05;4.53;;;;;;;22.34;59.47;101619.84;5054634;27;20068;-61
2023/09/08 09:10:46;;;;;;;5.57;4.30;;;;;;;22.38;59.73;101611.88;5055808;28;20103;-60
2023/09/08 09:13:13;;;;;;;7.18;4.50;;;;;;;22.40;59.69;101612.44;5057128;27;20481;-63
2023/09/08 09:15:41;;;;;;;6.10;4.22;;;;;;;22.43;59.94;101605.56;5053896;27;20113;-63
2023/09/08 09:18:09;;;;;;;7.15;4.60;;;;;;;22.45;59.54;101606.91;5061739;27;20057;-62
2023/09/08 09:20:37;;;;;;;5.72;4.28;;;;;;;22.48;59.67;101614.56;5060860;28;20105;-62
2023/09/08 09:23:05;;;;;;;5.63;4.10;;;;;;;22.51;59.79;101614.00;5061163;27;20056;-62
2023/09/08 09:25:35;;;;;;;5.25;3.90;;;;;;;22.51;59.72;101611.28;5063924;27;20136;-62
2023/09/08 09:28:05;;;;;;;5.78;4.15;;;;;;;22.56;59.68;101611.19;5050620;27;20037;-63
2023/09/08 09:30:48;;;;;;;6.72;4.75;;;;;;;22.59;60.27;101616.13;5051375;27;20069;-62
2023/09/08 09:33:16;;;;;;;6.28;4.18;;;;;;;22.64;60.39;101615.25;5055258;27;20121;-62
2023/09/08 09:35:46;;;;;;;5.10;3.95;;;;;;;22.66;60.13;101613.88;5054245;27;20153;-62
2023/09/08 09:38:14;;;;;;;6.68;4.28;;;;;;;22.67;60.33;101609.22;5055002;27;20047;-62
2023/09/08 09:40:44;;;;;;;6.22;4.60;;;;;;;22.74;60.72;101610.53;5057105;27;20060;-62
2023/09/08 09:43:12;;;;;;;5.32;4.22;;;;;;;22.66;60.45;101600.19;5053076;27;20048;-62
2023/09/08 09:45:42;;;;;;;6.07;4.68;;;;;;;22.82;60.29;101611.06;5058136;27;20088;-63
2023/09/08 09:48:11;;;;;;;6.63;4.47;;;;;;;22.86;60.97;101609.41;5053942;28;20145;-63
2023/09/08 09:50:40;;;;;;;6.05;4.20;;;;;;;22.91;60.99;101617.56;5057833;27;20041;-61
2023/09/08 09:53:10;;;;;;;6.35;4.65;;;;;;;22.95;60.76;101618.63;5058921;28;20048;-61
2023/09/08 09:55:40;;;;;;;5.35;4.03;;;;;;;23.01;61.24;101612.00;5062104;27;20053;-61
2023/09/08 09:58:11;;;;;;;6.53;4.53;;;;;;;23.04;61.14;101608.69;5060137;28;20330;-61
2023/09/08 10:00:41;;;;;;;6.20;4.55;;;;;;;23.06;60.81;101614.72;5059932;28;20056;-61
2023/09/08 10:03:10;;;;;;;8.35;4.55;;;;;;;23.15;60.99;101606.69;5060398;28;20108;-61
2023/09/08 10:05:38;;;;;;;6.28;4.18;;;;;;;23.18;61.11;101598.72;5057511;27;20068;-61
2023/09/08 10:08:07;;;;;;;6.03;4.65;;;;;;;23.18;60.69;101595.16;5059618;28;20064;-61
2023/09/08 10:10:35;;;;;;;5.45;4.00;;;;;;;23.23;60.92;101609.63;5052933;28;20049;-61
2023/09/08 10:13:06;;;;;;;6.80;4.03;;;;;;;23.25;60.64;101596.44;5059102;28;20137;-60
2023/09/08 10:15:38;;;;;;;7.10;4.45;;;;;;;23.32;60.92;101598.84;5059218;28;20086;-61
2023/09/08 10:18:07;;;;;;;5.80;4.45;;;;;;;23.37;61.14;101607.03;5056773;27;20049;-61
2023/09/08 10:20:37;;;;;;;5.10;4.10;;;;;;;23.39;60.70;101604.81;5050861;28;20046;-61
2023/09/08 10:23:09;;;;;;;5.63;4.15;;;;;;;23.42;60.53;101604.25;5055724;28;20485;-62
2023/09/08 10:25:43;;;;;;;5.88;4.53;;;;;;;23.45;61.33;101600.09;5057695;27;20143;-61
2023/09/08 10:28:13;;;;;;;6.43;4.32;;;;;;;23.54;61.61;101601.97;5054629;27;20060;-61
2023/09/08 10:30:43;;;;;;;5.57;3.80;;;;;;;23.60;61.38;101602.72;5058409;28;20282;-61
2023/09/08 10:33:12;;;;;;;6.15;4.38;;;;;;;23.65;60.77;101599.91;5058699;27;20098;-61
2023/09/08 10:35:41;;;;;;;7.80;4.25;;;;;;;23.71;60.75;101597.94;5065111;27;20056;-61
2023/09/08 10:38:25;;;;;;;10.25;4.90;;;;;;;23.77;61.24;101591.28;5055158;28;20061;-61
2023/09/08 10:40:54;;;;;;;5.70;3.85;;;;;;;23.81;60.92;101595.91;5059449;28;20171;-61
2023/09/08 10:43:22;;;;;;;10.90;4.88;;;;;;;23.85;61.00;101591.44;5052920;27;20045;-62
2023/09/08 10:45:51;;;;;;;5.10;4.13;;;;;;;23.92;61.15;101593.84;5058072;27;20522;-62
2023/09/08 10:48:20;;;;;;;5.82;4.35;;;;;;;23.98;61.57;101598.97;5061987;27;20049;-62
2023/09/08 10:50:48;;;;;;;8.32;4.30;;;;;;;24.05;61.30;101593.13;5063017;28;20053;-61
2023/09/08 10:53:17;;;;;;;6.57;4.47;;;;;;;24.10;61.46;101589.50;5057074;27;20057;-61
2023/09/08 10:55:48;;;;;;;4.53;3.75;;;;;;;24.13;61.54;101589.72;5057322;28;20056;-61
2023/09/08 10:58:38;;;;;;;5.30;4.30;;;;;;;24.18;60.98;101592.41;5062739;27;20130;-61
2023/09/08 11:01:08;;;;;;;5.18;3.83;;;;;;;24.23;61.15;101588.78;5058270;28;20074;-61
2023/09/08 11:03:48;;;;;;;6.30;3.88;;;;;;;24.27;61.07;101592.56;5059033;27;20077;-61
2023/09/08 11:06:17;;;;;;;6.32;4.45;;;;;;;24.30;61.30;101598.28;5057463;27;20060;-61
2023/09/08 11:08:46;;;;;;;5.22;3.85;;;;;;;24.34;60.98;101588.34;5058940;27;20053;-61
2023/09/08 11:11:16;;;;;;;4.93;3.92;;;;;;;24.40;61.26;101586.34;5058960;27;20045;-61
2023/09/08 11:13:45;;;;;;;5.78;4.10;;;;;;;24.48;61.57;101584.84;5056211;27;20469;-62
2023/09/08 11:16:15;;;;;;;6.55;3.92;;;;;;;24.54;61.61;101584.47;4711709;27;10000374;-62
2023/09/08 11:18:44;;;;;;;7.97;4.22;;;;;;;24.62;61.44;101585.75;5054597;27;20294;-62
2023/09/08 11:21:12;;;;;;;5.78;4.50;;;;;;;24.66;61.50;101590.34;5056280;27;20063;-62
2023/09/08 11:23:40;;;;;;;5.18;4.18;;;;;;;24.70;61.37;101589.75;5053086;27;20076;-62
2023/09/08 11:26:08;;;;;;;4.82;3.95;;;;;;;24.75;61.19;101586.91;5056231;27;20076;-61
2023/09/08 11:28:37;;;;;;;6.15;3.88;;;;;;;24.78;61.17;101587.13;5055414;27;20528;-62
2023/09/08 11:31:08;;;;;;;5.38;4.45;;;;;;;24.83;61.19;101578.81;5051311;27;20045;-62